Santo, Texas
Current Conditions -  °F | °C
As of 6:35 PM on Saturday 22 Nov 2014 (Local Time) from KGDJ Reporting Station
Moderate Rain Moderate Rain  
Wind Chill: 58°   Ceiling: 4000
Heat Index: 58°   Visibility: 7mi
Dew Point: 56°   Wind: 0mph
Humidity: 90%   Direction: NA
Pressure: 29.89"   Gusts: NA
Location:  32.6°N, 98.22°W
Report Text: KGDJ 230035Z AUTO 00000KT 7SM RA OVC040 15/13 A2989 RMK AO2 LTG DSNT SW P0004 T01470131
Loading
Personal Weather Stations






























Interactive Weather Map New forecast layout! Learn more

10-Day Weather Forecast

Advertisements
Track Severe Weather on mobile